sensor_id;sensor_type;location;lat;lon;timestamp;temperature;humidity
75155;HTU21D;63735;44.730;37.818;2023-04-01T00:00:00;7.00;66.32
75155;HTU21D;63735;44.730;37.818;2023-04-01T00:02:26;6.98;66.30
75155;HTU21D;63735;44.730;37.818;2023-04-01T00:04:52;6.97;66.31
75155;HTU21D;63735;44.730;37.818;2023-04-01T00:07:17;6.98;66.44
75155;HTU21D;63735;44.730;37.818;2023-04-01T00:09:43;6.97;66.39
75155;HTU21D;63735;44.730;37.818;2023-04-01T00:12:09;6.96;66.33
75155;HTU21D;63735;44.730;37.818;2023-04-01T00:14:35;6.96;66.36
75155;HTU21D;63735;44.730;37.818;2023-04-01T00:17:02;6.96;66.39
75155;HTU21D;63735;44.730;37.818;2023-04-01T00:19:28;6.93;66.35
75155;HTU21D;63735;44.730;37.818;2023-04-01T00:21:54;6.93;66.33
75155;HTU21D;63735;44.730;37.818;2023-04-01T00:24:19;6.90;66.30
75155;HTU21D;63735;44.730;37.818;2023-04-01T00:26:45;6.91;65.74
75155;HTU21D;63735;44.730;37.818;2023-04-01T00:29:13;6.91;65.30
75155;HTU21D;63735;44.730;37.818;2023-04-01T00:31:38;6.90;65.06
75155;HTU21D;63735;44.730;37.818;2023-04-01T00:34:04;6.90;64.80
75155;HTU21D;63735;44.730;37.818;2023-04-01T00:36:30;6.88;64.94
75155;HTU21D;63735;44.730;37.818;2023-04-01T00:38:57;6.88;65.10
75155;HTU21D;63735;44.730;37.818;2023-04-01T00:41:24;6.88;65.15
75155;HTU21D;63735;44.730;37.818;2023-04-01T00:43:51;6.87;65.25
75155;HTU21D;63735;44.730;37.818;2023-04-01T00:46:17;6.87;65.32
75155;HTU21D;63735;44.730;37.818;2023-04-01T00:48:47;6.87;65.49
75155;HTU21D;63735;44.730;37.818;2023-04-01T00:51:14;6.91;65.43
75155;HTU21D;63735;44.730;37.818;2023-04-01T00:53:41;6.89;65.51
75155;HTU21D;63735;44.730;37.818;2023-04-01T00:56:18;6.90;65.54
75155;HTU21D;63735;44.730;37.818;2023-04-01T00:58:48;6.91;65.13
75155;HTU21D;63735;44.730;37.818;2023-04-01T01:01:15;6.91;65.08
75155;HTU21D;63735;44.730;37.818;2023-04-01T01:03:41;6.89;65.05
75155;HTU21D;63735;44.730;37.818;2023-04-01T01:08:52;6.91;64.81
75155;HTU21D;63735;44.730;37.818;2023-04-01T01:11:20;6.90;64.76
75155;HTU21D;63735;44.730;37.818;2023-04-01T01:13:51;6.89;64.89
75155;HTU21D;63735;44.730;37.818;2023-04-01T01:16:29;6.90;64.84
75155;HTU21D;63735;44.730;37.818;2023-04-01T01:19:07;6.93;64.88
75155;HTU21D;63735;44.730;37.818;2023-04-01T01:29:12;6.97;65.09
75155;HTU21D;63735;44.730;37.818;2023-04-01T01:31:50;6.97;65.18
75155;HTU21D;63735;44.730;37.818;2023-04-01T01:36:53;6.96;65.43
75155;HTU21D;63735;44.730;37.818;2023-04-01T01:39:23;6.95;65.49
75155;HTU21D;63735;44.730;37.818;2023-04-01T01:41:53;6.97;65.69
75155;HTU21D;63735;44.730;37.818;2023-04-01T01:44:20;7.00;65.69
75155;HTU21D;63735;44.730;37.818;2023-04-01T01:46:46;7.02;65.59
75155;HTU21D;63735;44.730;37.818;2023-04-01T01:49:13;7.03;65.54
75155;HTU21D;63735;44.730;37.818;2023-04-01T01:51:40;7.02;65.62
75155;HTU21D;63735;44.730;37.818;2023-04-01T01:54:12;7.02;65.87
75155;HTU21D;63735;44.730;37.818;2023-04-01T01:56:38;7.02;65.98
75155;HTU21D;63735;44.730;37.818;2023-04-01T01:59:05;7.04;66.01
75155;HTU21D;63735;44.730;37.818;2023-04-01T02:01:33;7.03;66.01
75155;HTU21D;63735;44.730;37.818;2023-04-01T02:04:07;7.04;66.13
75155;HTU21D;63735;44.730;37.818;2023-04-01T02:06:34;7.04;66.19
75155;HTU21D;63735;44.730;37.818;2023-04-01T02:09:03;7.05;66.19
75155;HTU21D;63735;44.730;37.818;2023-04-01T02:11:52;7.03;66.20
75155;HTU21D;63735;44.730;37.818;2023-04-01T02:14:19;7.05;66.31
75155;HTU21D;63735;44.730;37.818;2023-04-01T02:16:51;7.08;66.50
75155;HTU21D;63735;44.730;37.818;2023-04-01T02:19:18;7.08;66.54
75155;HTU21D;63735;44.730;37.818;2023-04-01T02:21:53;7.07;66.78
75155;HTU21D;63735;44.730;37.818;2023-04-01T02:24:20;7.08;66.81
75155;HTU21D;63735;44.730;37.818;2023-04-01T02:26:50;7.09;66.68
75155;HTU21D;63735;44.730;37.818;2023-04-01T02:29:16;7.08;66.72
75155;HTU21D;63735;44.730;37.818;2023-04-01T02:31:43;7.05;66.75
75155;HTU21D;63735;44.730;37.818;2023-04-01T02:34:09;7.05;66.79
75155;HTU21D;63735;44.730;37.818;2023-04-01T02:36:35;7.07;66.87
75155;HTU21D;63735;44.730;37.818;2023-04-01T02:39:02;7.09;66.96
75155;HTU21D;63735;44.730;37.818;2023-04-01T02:41:29;7.10;67.00
75155;HTU21D;63735;44.730;37.818;2023-04-01T02:43:55;7.12;67.05
75155;HTU21D;63735;44.730;37.818;2023-04-01T02:46:22;7.15;66.92
75155;HTU21D;63735;44.730;37.818;2023-04-01T02:48:48;7.15;66.89
75155;HTU21D;63735;44.730;37.818;2023-04-01T02:51:14;7.18;67.03
75155;HTU21D;63735;44.730;37.818;2023-04-01T02:53:39;7.19;67.08
75155;HTU21D;63735;44.730;37.818;2023-04-01T02:56:05;7.19;67.14
75155;HTU21D;63735;44.730;37.818;2023-04-01T02:58:31;7.20;67.17
75155;HTU21D;63735;44.730;37.818;2023-04-01T03:00:57;7.22;67.12
75155;HTU21D;63735;44.730;37.818;2023-04-01T03:03:22;7.25;67.05
75155;HTU21D;63735;44.730;37.818;2023-04-01T03:05:48;7.26;67.02
75155;HTU21D;63735;44.730;37.818;2023-04-01T03:08:14;7.26;67.01
75155;HTU21D;63735;44.730;37.818;2023-04-01T03:10:40;7.27;67.01
75155;HTU21D;63735;44.730;37.818;2023-04-01T03:13:06;7.30;67.07
75155;HTU21D;63735;44.730;37.818;2023-04-01T03:15:32;7.31;67.14
75155;HTU21D;63735;44.730;37.818;2023-04-01T03:17:57;7.32;67.10
75155;HTU21D;63735;44.730;37.818;2023-04-01T03:20:23;7.34;67.07
75155;HTU21D;63735;44.730;37.818;2023-04-01T03:22:49;7.39;66.92
75155;HTU21D;63735;44.730;37.818;2023-04-01T03:25:15;7.41;66.93
75155;HTU21D;63735;44.730;37.818;2023-04-01T03:27:41;7.44;66.94
75155;HTU21D;63735;44.730;37.818;2023-04-01T03:30:08;7.44;66.91
75155;HTU21D;63735;44.730;37.818;2023-04-01T03:32:42;7.45;66.95
75155;HTU21D;63735;44.730;37.818;2023-04-01T03:35:08;7.47;66.89
75155;HTU21D;63735;44.730;37.818;2023-04-01T03:37:36;7.48;66.65
75155;HTU21D;63735;44.730;37.818;2023-04-01T03:40:03;7.48;66.58
75155;HTU21D;63735;44.730;37.818;2023-04-01T03:42:29;7.50;66.47
75155;HTU21D;63735;44.730;37.818;2023-04-01T03:44:56;7.52;66.40
75155;HTU21D;63735;44.730;37.818;2023-04-01T03:47:22;7.54;66.37
75155;HTU21D;63735;44.730;37.818;2023-04-01T03:49:48;7.56;66.44
75155;HTU21D;63735;44.730;37.818;2023-04-01T03:52:14;7.59;66.33
75155;HTU21D;63735;44.730;37.818;2023-04-01T03:54:39;7.59;66.30
75155;HTU21D;63735;44.730;37.818;2023-04-01T03:57:06;7.64;66.01
75155;HTU21D;63735;44.730;37.818;2023-04-01T03:59:32;7.65;65.85
75155;HTU21D;63735;44.730;37.818;2023-04-01T04:01:58;7.68;65.71
75155;HTU21D;63735;44.730;37.818;2023-04-01T04:04:24;7.70;65.81
75155;HTU21D;63735;44.730;37.818;2023-04-01T04:06:51;7.73;65.80
75155;HTU21D;63735;44.730;37.818;2023-04-01T04:09:18;7.74;65.69
75155;HTU21D;63735;44.730;37.818;2023-04-01T04:11:44;7.76;65.65
75155;HTU21D;63735;44.730;37.818;2023-04-01T04:14:10;7.77;65.55
75155;HTU21D;63735;44.730;37.818;2023-04-01T04:16:36;7.84;65.60
75155;HTU21D;63735;44.730;37.818;2023-04-01T04:19:02;8.20;64.80
75155;HTU21D;63735;44.730;37.818;2023-04-01T04:21:28;8.50;64.55
75155;HTU21D;63735;44.730;37.818;2023-04-01T04:23:54;9.69;61.21
75155;HTU21D;63735;44.730;37.818;2023-04-01T04:26:20;9.70;60.64
75155;HTU21D;63735;44.730;37.818;2023-04-01T04:28:53;9.99;60.25
75155;HTU21D;63735;44.730;37.818;2023-04-01T04:31:23;10.74;58.60
75155;HTU21D;63735;44.730;37.818;2023-04-01T04:33:50;11.20;57.07
75155;HTU21D;63735;44.730;37.818;2023-04-01T04:36:17;11.31;57.08
75155;HTU21D;63735;44.730;37.818;2023-04-01T04:38:43;10.97;57.30
75155;HTU21D;63735;44.730;37.818;2023-04-01T04:41:12;10.42;58.65
75155;HTU21D;63735;44.730;37.818;2023-04-01T04:43:40;9.76;60.26
75155;HTU21D;63735;44.730;37.818;2023-04-01T04:46:07;9.65;61.45
75155;HTU21D;63735;44.730;37.818;2023-04-01T04:48:33;10.53;59.55
75155;HTU21D;63735;44.730;37.818;2023-04-01T04:50:59;11.41;57.06
75155;HTU21D;63735;44.730;37.818;2023-04-01T04:53:25;11.51;56.43
75155;HTU21D;63735;44.730;37.818;2023-04-01T04:55:51;11.28;56.77
75155;HTU21D;63735;44.730;37.818;2023-04-01T04:58:37;10.95;57.86
75155;HTU21D;63735;44.730;37.818;2023-04-01T05:01:10;11.10;58.41
75155;HTU21D;63735;44.730;37.818;2023-04-01T05:03:37;11.31;57.54
75155;HTU21D;63735;44.730;37.818;2023-04-01T05:06:04;11.02;58.02
75155;HTU21D;63735;44.730;37.818;2023-04-01T05:08:30;10.73;58.45
75155;HTU21D;63735;44.730;37.818;2023-04-01T05:10:58;10.58;59.11
75155;HTU21D;63735;44.730;37.818;2023-04-01T05:13:24;11.01;57.86
75155;HTU21D;63735;44.730;37.818;2023-04-01T05:15:50;10.93;58.15
75155;HTU21D;63735;44.730;37.818;2023-04-01T05:18:16;11.23;57.69
75155;HTU21D;63735;44.730;37.818;2023-04-01T05:20:46;11.42;57.52
75155;HTU21D;63735;44.730;37.818;2023-04-01T05:23:13;11.64;56.42
75155;HTU21D;63735;44.730;37.818;2023-04-01T05:25:39;11.69;56.29
75155;HTU21D;63735;44.730;37.818;2023-04-01T05:28:05;12.33;54.85
75155;HTU21D;63735;44.730;37.818;2023-04-01T05:30:31;13.20;52.78
75155;HTU21D;63735;44.730;37.818;2023-04-01T05:33:02;13.58;51.97
75155;HTU21D;63735;44.730;37.818;2023-04-01T05:35:27;13.15;52.62
75155;HTU21D;63735;44.730;37.818;2023-04-01T05:37:53;12.97;53.33
75155;HTU21D;63735;44.730;37.818;2023-04-01T05:40:20;13.36;52.94
75155;HTU21D;63735;44.730;37.818;2023-04-01T05:42:46;12.82;53.91
75155;HTU21D;63735;44.730;37.818;2023-04-01T05:45:14;13.27;53.48
75155;HTU21D;63735;44.730;37.818;2023-04-01T05:48:16;14.10;50.50
75155;HTU21D;63735;44.730;37.818;2023-04-01T05:50:43;13.33;52.05
75155;HTU21D;63735;44.730;37.818;2023-04-01T05:53:10;13.88;51.18
75155;HTU21D;63735;44.730;37.818;2023-04-01T05:55:36;15.06;48.31
75155;HTU21D;63735;44.730;37.818;2023-04-01T05:58:03;14.36;48.78
75155;HTU21D;63735;44.730;37.818;2023-04-01T06:00:29;13.54;51.29
75155;HTU21D;63735;44.730;37.818;2023-04-01T06:02:58;13.50;51.27
75155;HTU21D;63735;44.730;37.818;2023-04-01T06:05:24;13.73;51.38
75155;HTU21D;63735;44.730;37.818;2023-04-01T06:07:51;13.85;50.50
75155;HTU21D;63735;44.730;37.818;2023-04-01T06:10:20;13.17;52.44
75155;HTU21D;63735;44.730;37.818;2023-04-01T06:18:03;12.62;52.89
75155;HTU21D;63735;44.730;37.818;2023-04-01T06:25:38;12.72;52.51
75155;HTU21D;63735;44.730;37.818;2023-04-01T06:31:05;11.18;56.57
75155;HTU21D;63735;44.730;37.818;2023-04-01T06:33:42;11.11;57.47
75155;HTU21D;63735;44.730;37.818;2023-04-01T06:52:30;10.44;58.78
75155;HTU21D;63735;44.730;37.818;2023-04-01T06:59:24;11.24;56.90
75155;HTU21D;63735;44.730;37.818;2023-04-01T07:01:47;11.14;57.17
75155;HTU21D;63735;44.730;37.818;2023-04-01T07:04:19;11.38;56.52
75155;HTU21D;63735;44.730;37.818;2023-04-01T07:06:48;11.47;56.54
75155;HTU21D;63735;44.730;37.818;2023-04-01T07:09:21;11.71;56.32
75155;HTU21D;63735;44.730;37.818;2023-04-01T07:12:10;12.30;55.33
75155;HTU21D;63735;44.730;37.818;2023-04-01T07:15:28;12.14;54.92
75155;HTU21D;63735;44.730;37.818;2023-04-01T07:17:57;12.05;55.05
75155;HTU21D;63735;44.730;37.818;2023-04-01T07:20:27;12.03;56.05
75155;HTU21D;63735;44.730;37.818;2023-04-01T07:22:59;12.29;55.50
75155;HTU21D;63735;44.730;37.818;2023-04-01T07:25:37;12.25;55.37
75155;HTU21D;63735;44.730;37.818;2023-04-01T07:28:29;11.77;56.64
75155;HTU21D;63735;44.730;37.818;2023-04-01T07:31:11;11.94;56.74
75155;HTU21D;63735;44.730;37.818;2023-04-01T07:33:41;12.45;55.02
75155;HTU21D;63735;44.730;37.818;2023-04-01T07:36:18;12.67;54.59
75155;HTU21D;63735;44.730;37.818;2023-04-01T07:42:04;12.66;54.65
75155;HTU21D;63735;44.730;37.818;2023-04-01T07:44:45;12.58;54.49
75155;HTU21D;63735;44.730;37.818;2023-04-01T07:50:33;11.93;55.55
75155;HTU21D;63735;44.730;37.818;2023-04-01T08:05:28;11.84;55.43
75155;HTU21D;63735;44.730;37.818;2023-04-01T08:08:32;11.77;55.87
75155;HTU21D;63735;44.730;37.818;2023-04-01T08:17:04;11.27;57.88
75155;HTU21D;63735;44.730;37.818;2023-04-01T08:22:27;11.85;56.50
75155;HTU21D;63735;44.730;37.818;2023-04-01T08:24:57;11.47;56.57
75155;HTU21D;63735;44.730;37.818;2023-04-01T08:29:58;11.20;58.00
75155;HTU21D;63735;44.730;37.818;2023-04-01T08:32:26;11.09;58.01
75155;HTU21D;63735;44.730;37.818;2023-04-01T08:37:51;10.93;58.80
75155;HTU21D;63735;44.730;37.818;2023-04-01T08:40:28;11.12;58.38
75155;HTU21D;63735;44.730;37.818;2023-04-01T08:56:18;12.05;56.90
75155;HTU21D;63735;44.730;37.818;2023-04-01T09:07:40;12.42;56.40
75155;HTU21D;63735;44.730;37.818;2023-04-01T09:15:47;11.69;57.99
75155;HTU21D;63735;44.730;37.818;2023-04-01T09:26:08;11.61;57.95
75155;HTU21D;63735;44.730;37.818;2023-04-01T09:31:12;12.05;57.12
75155;HTU21D;63735;44.730;37.818;2023-04-01T10:01:02;12.37;56.36
75155;HTU21D;63735;44.730;37.818;2023-04-01T10:24:46;12.28;56.55
75155;HTU21D;63735;44.730;37.818;2023-04-01T10:35:26;12.22;56.70
75155;HTU21D;63735;44.730;37.818;2023-04-01T10:38:39;12.40;55.96
75155;HTU21D;63735;44.730;37.818;2023-04-01T10:51:38;12.33;56.37
75155;HTU21D;63735;44.730;37.818;2023-04-01T10:54:20;12.11;56.45
75155;HTU21D;63735;44.730;37.818;2023-04-01T10:57:20;12.05;57.05
75155;HTU21D;63735;44.730;37.818;2023-04-01T11:09:18;12.19;56.63
75155;HTU21D;63735;44.730;37.818;2023-04-01T11:27:50;12.00;57.30
75155;HTU21D;63735;44.730;37.818;2023-04-01T11:30:39;11.87;57.45
75155;HTU21D;63735;44.730;37.818;2023-04-01T11:33:52;11.96;57.65
75155;HTU21D;63735;44.730;37.818;2023-04-01T11:38:23;12.60;56.65
75155;HTU21D;63735;44.730;37.818;2023-04-01T11:40:57;13.01;56.21
75155;HTU21D;63735;44.730;37.818;2023-04-01T11:46:16;12.82;56.20
75155;HTU21D;63735;44.730;37.818;2023-04-01T11:49:06;13.20;55.50
75155;HTU21D;63735;44.730;37.818;2023-04-01T11:51:43;12.85;55.20
75155;HTU21D;63735;44.730;37.818;2023-04-01T12:08:19;13.33;55.09
75155;HTU21D;63735;44.730;37.818;2023-04-01T12:13:27;12.84;56.14
75155;HTU21D;63735;44.730;37.818;2023-04-01T12:18:46;12.73;56.07
75155;HTU21D;63735;44.730;37.818;2023-04-01T12:29:02;13.17;55.84
75155;HTU21D;63735;44.730;37.818;2023-04-01T12:42:05;13.04;54.65
75155;HTU21D;63735;44.730;37.818;2023-04-01T12:44:38;13.48;53.94
75155;HTU21D;63735;44.730;37.818;2023-04-01T12:54:58;14.70;52.10
75155;HTU21D;63735;44.730;37.818;2023-04-01T13:05:02;14.00;52.40
75155;HTU21D;63735;44.730;37.818;2023-04-01T13:07:49;13.89;52.38
75155;HTU21D;63735;44.730;37.818;2023-04-01T13:10:26;14.51;51.83
75155;HTU21D;63735;44.730;37.818;2023-04-01T13:18:07;14.94;50.55
75155;HTU21D;63735;44.730;37.818;2023-04-01T13:25:54;14.12;51.85
75155;HTU21D;63735;44.730;37.818;2023-04-01T13:28:25;13.78;51.91
75155;HTU21D;63735;44.730;37.818;2023-04-01T13:33:37;13.27;52.46
75155;HTU21D;63735;44.730;37.818;2023-04-01T13:39:19;13.04;53.10
75155;HTU21D;63735;44.730;37.818;2023-04-01T13:41:57;13.14;53.30
75155;HTU21D;63735;44.730;37.818;2023-04-01T13:44:40;13.47;53.28
75155;HTU21D;63735;44.730;37.818;2023-04-01T13:52:25;12.63;53.56
75155;HTU21D;63735;44.730;37.818;2023-04-01T13:57:42;12.67;54.42
75155;HTU21D;63735;44.730;37.818;2023-04-01T14:03:14;12.58;54.76
75155;HTU21D;63735;44.730;37.818;2023-04-01T14:11:10;12.34;54.87
75155;HTU21D;63735;44.730;37.818;2023-04-01T14:23:51;10.66;56.72
75155;HTU21D;63735;44.730;37.818;2023-04-01T14:28:55;10.44;57.52
75155;HTU21D;63735;44.730;37.818;2023-04-01T14:31:36;10.24;58.10
75155;HTU21D;63735;44.730;37.818;2023-04-01T14:39:22;9.76;60.67
75155;HTU21D;63735;44.730;37.818;2023-04-01T14:49:32;9.46;61.61
75155;HTU21D;63735;44.730;37.818;2023-04-01T14:54:54;9.40;61.38
75155;HTU21D;63735;44.730;37.818;2023-04-01T14:57:25;9.42;61.88
75155;HTU21D;63735;44.730;37.818;2023-04-01T14:59:59;9.38;61.72
75155;HTU21D;63735;44.730;37.818;2023-04-01T15:05:05;9.31;62.15
75155;HTU21D;63735;44.730;37.818;2023-04-01T15:15:38;9.17;62.63
75155;HTU21D;63735;44.730;37.818;2023-04-01T15:18:09;9.11;62.84
75155;HTU21D;63735;44.730;37.818;2023-04-01T15:23:15;9.05;63.50
75155;HTU21D;63735;44.730;37.818;2023-04-01T15:25:56;9.01;63.50
75155;HTU21D;63735;44.730;37.818;2023-04-01T15:36:42;8.98;64.09
75155;HTU21D;63735;44.730;37.818;2023-04-01T15:46:50;8.86;64.53
75155;HTU21D;63735;44.730;37.818;2023-04-01T15:49:28;8.82;64.78
75155;HTU21D;63735;44.730;37.818;2023-04-01T16:00:56;8.79;64.79
75155;HTU21D;63735;44.730;37.818;2023-04-01T16:04:05;8.83;64.85
75155;HTU21D;63735;44.730;37.818;2023-04-01T16:11:52;8.87;64.72
75155;HTU21D;63735;44.730;37.818;2023-04-01T16:17:23;8.91;64.53
75155;HTU21D;63735;44.730;37.818;2023-04-01T16:20:14;8.91;64.34
75155;HTU21D;63735;44.730;37.818;2023-04-01T16:23:10;8.92;64.30
75155;HTU21D;63735;44.730;37.818;2023-04-01T16:25:41;8.93;64.15
75155;HTU21D;63735;44.730;37.818;2023-04-01T16:31:27;9.01;64.00
75155;HTU21D;63735;44.730;37.818;2023-04-01T16:34:14;9.04;63.80
75155;HTU21D;63735;44.730;37.818;2023-04-01T16:36:55;9.04;63.78
75155;HTU21D;63735;44.730;37.818;2023-04-01T16:39:48;9.03;63.50
75155;HTU21D;63735;44.730;37.818;2023-04-01T16:48:14;9.03;61.99
75155;HTU21D;63735;44.730;37.818;2023-04-01T16:53:46;9.07;61.70
75155;HTU21D;63735;44.730;37.818;2023-04-01T16:56:24;9.08;61.57
75155;HTU21D;63735;44.730;37.818;2023-04-01T17:01:54;9.04;61.18
75155;HTU21D;63735;44.730;37.818;2023-04-01T17:04:47;9.03;61.12
75155;HTU21D;63735;44.730;37.818;2023-04-01T17:18:39;9.06;60.40
75155;HTU21D;63735;44.730;37.818;2023-04-01T17:21:37;9.05;60.32
75155;HTU21D;63735;44.730;37.818;2023-04-01T17:30:28;9.05;59.87
75155;HTU21D;63735;44.730;37.818;2023-04-01T17:33:24;9.05;59.54
75155;HTU21D;63735;44.730;37.818;2023-04-01T17:35:59;9.05;59.45
75155;HTU21D;63735;44.730;37.818;2023-04-01T17:38:34;9.06;59.25
75155;HTU21D;63735;44.730;37.818;2023-04-01T17:44:11;9.05;58.95
75155;HTU21D;63735;44.730;37.818;2023-04-01T17:52:33;9.07;58.39
75155;HTU21D;63735;44.730;37.818;2023-04-01T17:58:22;9.11;58.03
75155;HTU21D;63735;44.730;37.818;2023-04-01T18:09:12;9.12;57.51
75155;HTU21D;63735;44.730;37.818;2023-04-01T18:15:05;9.14;57.35
75155;HTU21D;63735;44.730;37.818;2023-04-01T18:20:41;9.08;56.12
75155;HTU21D;63735;44.730;37.818;2023-04-01T18:23:40;9.09;56.08
75155;HTU21D;63735;44.730;37.818;2023-04-01T18:26:30;9.08;56.05
75155;HTU21D;63735;44.730;37.818;2023-04-01T18:31:49;9.08;55.58
75155;HTU21D;63735;44.730;37.818;2023-04-01T18:37:28;9.08;54.61
75155;HTU21D;63735;44.730;37.818;2023-04-01T18:40:20;9.06;54.62
75155;HTU21D;63735;44.730;37.818;2023-04-01T18:46:00;9.02;54.86
75155;HTU21D;63735;44.730;37.818;2023-04-01T18:54:00;8.97;54.56
75155;HTU21D;63735;44.730;37.818;2023-04-01T18:56:34;8.96;54.59
75155;HTU21D;63735;44.730;37.818;2023-04-01T18:59:23;8.95;54.54
75155;HTU21D;63735;44.730;37.818;2023-04-01T19:02:05;8.93;54.57
75155;HTU21D;63735;44.730;37.818;2023-04-01T19:04:43;8.93;54.59
75155;HTU21D;63735;44.730;37.818;2023-04-01T19:10:17;8.93;54.43
75155;HTU21D;63735;44.730;37.818;2023-04-01T19:12:59;8.91;54.42
75155;HTU21D;63735;44.730;37.818;2023-04-01T19:21:15;8.79;53.92
75155;HTU21D;63735;44.730;37.818;2023-04-01T19:24:15;8.73;53.97
75155;HTU21D;63735;44.730;37.818;2023-04-01T19:29:52;8.66;54.17
75155;HTU21D;63735;44.730;37.818;2023-04-01T19:37:56;8.59;54.04
75155;HTU21D;63735;44.730;37.818;2023-04-01T19:45:52;8.51;53.70
75155;HTU21D;63735;44.730;37.818;2023-04-01T19:48:44;8.50;53.61
75155;HTU21D;63735;44.730;37.818;2023-04-01T19:54:24;8.37;53.81
75155;HTU21D;63735;44.730;37.818;2023-04-01T19:57:34;8.32;53.79
75155;HTU21D;63735;44.730;37.818;2023-04-01T20:00:02;8.16;53.91
75155;HTU21D;63735;44.730;37.818;2023-04-01T20:08:19;7.83;54.40
75155;HTU21D;63735;44.730;37.818;2023-04-01T20:11:04;7.78;54.50
75155;HTU21D;63735;44.730;37.818;2023-04-01T20:13:48;7.63;54.65
75155;HTU21D;63735;44.730;37.818;2023-04-01T20:16:18;7.48;54.88
75155;HTU21D;63735;44.730;37.818;2023-04-01T20:18:59;7.44;54.82
75155;HTU21D;63735;44.730;37.818;2023-04-01T20:21:46;7.41;54.82
75155;HTU21D;63735;44.730;37.818;2023-04-01T20:26:41;7.46;54.62
75155;HTU21D;63735;44.730;37.818;2023-04-01T20:37:55;7.46;54.58
75155;HTU21D;63735;44.730;37.818;2023-04-01T20:40:29;7.35;54.72
75155;HTU21D;63735;44.730;37.818;2023-04-01T20:51:24;6.82;55.48
75155;HTU21D;63735;44.730;37.818;2023-04-01T21:07:13;6.38;56.15
75155;HTU21D;63735;44.730;37.818;2023-04-01T21:15:57;6.34;56.02
75155;HTU21D;63735;44.730;37.818;2023-04-01T21:18:46;6.26;56.14
75155;HTU21D;63735;44.730;37.818;2023-04-01T21:24:28;6.16;56.26
75155;HTU21D;63735;44.730;37.818;2023-04-01T21:30:28;5.99;56.45
75155;HTU21D;63735;44.730;37.818;2023-04-01T21:33:07;5.93;56.56
75155;HTU21D;63735;44.730;37.818;2023-04-01T21:35:50;5.90;56.53
75155;HTU21D;63735;44.730;37.818;2023-04-01T21:50:33;5.64;56.70
75155;HTU21D;63735;44.730;37.818;2023-04-01T22:07:28;5.70;56.34
75155;HTU21D;63735;44.730;37.818;2023-04-01T22:10:34;5.71;56.33
75155;HTU21D;63735;44.730;37.818;2023-04-01T22:13:33;5.71;56.29
75155;HTU21D;63735;44.730;37.818;2023-04-01T22:16:16;5.70;56.23
75155;HTU21D;63735;44.730;37.818;2023-04-01T22:21:43;5.63;56.24
75155;HTU21D;63735;44.730;37.818;2023-04-01T22:24:34;5.60;56.25
75155;HTU21D;63735;44.730;37.818;2023-04-01T22:27:07;5.61;56.12
75155;HTU21D;63735;44.730;37.818;2023-04-01T22:32:18;5.62;56.07
75155;HTU21D;63735;44.730;37.818;2023-04-01T22:35:13;5.55;56.08
75155;HTU21D;63735;44.730;37.818;2023-04-01T22:37:54;5.60;56.11
75155;HTU21D;63735;44.730;37.818;2023-04-01T22:40:45;5.65;56.02
75155;HTU21D;63735;44.730;37.818;2023-04-01T22:43:18;5.68;55.93
75155;HTU21D;63735;44.730;37.818;2023-04-01T22:46:11;5.76;55.70
75155;HTU21D;63735;44.730;37.818;2023-04-01T22:48:45;5.87;55.60
75155;HTU21D;63735;44.730;37.818;2023-04-01T22:51:22;5.91;55.36
75155;HTU21D;63735;44.730;37.818;2023-04-01T22:56:49;5.80;55.32
75155;HTU21D;63735;44.730;37.818;2023-04-01T23:02:41;5.75;55.26
75155;HTU21D;63735;44.730;37.818;2023-04-01T23:04:54;5.74;55.28
75155;HTU21D;63735;44.730;37.818;2023-04-01T23:07:36;5.71;55.16
75155;HTU21D;63735;44.730;37.818;2023-04-01T23:13:01;5.72;55.22
75155;HTU21D;63735;44.730;37.818;2023-04-01T23:15:29;5.65;55.26
75155;HTU21D;63735;44.730;37.818;2023-04-01T23:26:47;5.51;54.92
75155;HTU21D;63735;44.730;37.818;2023-04-01T23:29:17;5.48;54.97
75155;HTU21D;63735;44.730;37.818;2023-04-01T23:31:47;5.45;54.88
75155;HTU21D;63735;44.730;37.818;2023-04-01T23:36:47;5.43;54.79
75155;HTU21D;63735;44.730;37.818;2023-04-01T23:41:49;5.57;54.54
75155;HTU21D;63735;44.730;37.818;2023-04-01T23:44:16;5.63;54.42
75155;HTU21D;63735;44.730;37.818;2023-04-01T23:46:45;5.61;54.24
75155;HTU21D;63735;44.730;37.818;2023-04-01T23:49:21;5.61;54.30
75155;HTU21D;63735;44.730;37.818;2023-04-01T23:52:00;5.63;54.12
75155;HTU21D;63735;44.730;37.818;2023-04-01T23:54:33;5.67;54.04
75155;HTU21D;63735;44.730;37.818;2023-04-01T23:57:05;5.66;54.11
75155;HTU21D;63735;44.730;37.818;2023-04-01T23:59:36;5.68;54.20
